sensor_id;sensor_type;location;lat;lon;timestamp;P1;durP1;ratioP1;P2;durP2;ratioP2
62693;SDS011;48759;52.544;13.418;2023-04-16T00:01:33;36.33;;;27.23;;
62693;SDS011;48759;52.544;13.418;2023-04-16T00:04:00;33.73;;;25.50;;
62693;SDS011;48759;52.544;13.418;2023-04-16T00:06:27;38.63;;;26.50;;
62693;SDS011;48759;52.544;13.418;2023-04-16T00:08:53;35.27;;;26.03;;
62693;SDS011;48759;52.544;13.418;2023-04-16T00:11:22;33.00;;;23.80;;
62693;SDS011;48759;52.544;13.418;2023-04-16T00:13:48;36.57;;;28.10;;
62693;SDS011;48759;52.544;13.418;2023-04-16T00:16:15;36.37;;;24.83;;
62693;SDS011;48759;52.544;13.418;2023-04-16T00:18:42;41.80;;;28.03;;
62693;SDS011;48759;52.544;13.418;2023-04-16T00:21:08;34.10;;;25.13;;
62693;SDS011;48759;52.544;13.418;2023-04-16T00:23:35;33.97;;;26.50;;
62693;SDS011;48759;52.544;13.418;2023-04-16T00:26:02;34.60;;;25.13;;
62693;SDS011;48759;52.544;13.418;2023-04-16T00:28:30;33.83;;;25.90;;
62693;SDS011;48759;52.544;13.418;2023-04-16T00:30:57;34.83;;;25.47;;
62693;SDS011;48759;52.544;13.418;2023-04-16T00:33:26;37.03;;;26.90;;
62693;SDS011;48759;52.544;13.418;2023-04-16T00:35:54;35.33;;;26.67;;
62693;SDS011;48759;52.544;13.418;2023-04-16T00:38:21;39.20;;;27.93;;
62693;SDS011;48759;52.544;13.418;2023-04-16T00:40:47;37.03;;;27.10;;
62693;SDS011;48759;52.544;13.418;2023-04-16T00:43:19;35.03;;;26.57;;
62693;SDS011;48759;52.544;13.418;2023-04-16T00:45:48;41.10;;;28.73;;
62693;SDS011;48759;52.544;13.418;2023-04-16T00:48:15;38.07;;;27.40;;
62693;SDS011;48759;52.544;13.418;2023-04-16T00:50:42;38.53;;;25.90;;
62693;SDS011;48759;52.544;13.418;2023-04-16T00:53:09;37.23;;;27.43;;
62693;SDS011;48759;52.544;13.418;2023-04-16T00:55:36;41.93;;;28.90;;
62693;SDS011;48759;52.544;13.418;2023-04-16T00:58:04;37.83;;;26.87;;
62693;SDS011;48759;52.544;13.418;2023-04-16T01:00:31;35.90;;;25.93;;
62693;SDS011;48759;52.544;13.418;2023-04-16T01:03:00;33.70;;;24.83;;
62693;SDS011;48759;52.544;13.418;2023-04-16T01:05:27;34.40;;;24.70;;
62693;SDS011;48759;52.544;13.418;2023-04-16T01:07:55;34.33;;;25.50;;
62693;SDS011;48759;52.544;13.418;2023-04-16T01:10:23;35.33;;;25.77;;
62693;SDS011;48759;52.544;13.418;2023-04-16T01:12:50;40.13;;;26.10;;
62693;SDS011;48759;52.544;13.418;2023-04-16T01:15:17;35.00;;;26.60;;
62693;SDS011;48759;52.544;13.418;2023-04-16T01:17:44;33.93;;;26.23;;
62693;SDS011;48759;52.544;13.418;2023-04-16T01:20:15;38.37;;;26.20;;
62693;SDS011;48759;52.544;13.418;2023-04-16T01:22:43;31.20;;;24.00;;
62693;SDS011;48759;52.544;13.418;2023-04-16T01:25:12;36.07;;;25.30;;
62693;SDS011;48759;52.544;13.418;2023-04-16T01:27:40;36.17;;;26.37;;
62693;SDS011;48759;52.544;13.418;2023-04-16T01:30:07;37.70;;;27.60;;
62693;SDS011;48759;52.544;13.418;2023-04-16T01:32:34;42.00;;;26.30;;
62693;SDS011;48759;52.544;13.418;2023-04-16T01:35:01;37.53;;;27.13;;
62693;SDS011;48759;52.544;13.418;2023-04-16T01:37:28;39.80;;;25.57;;
62693;SDS011;48759;52.544;13.418;2023-04-16T01:39:57;34.53;;;24.80;;
62693;SDS011;48759;52.544;13.418;2023-04-16T01:42:24;33.13;;;25.80;;
62693;SDS011;48759;52.544;13.418;2023-04-16T01:44:50;35.93;;;27.37;;
62693;SDS011;48759;52.544;13.418;2023-04-16T01:47:17;38.67;;;25.67;;
62693;SDS011;48759;52.544;13.418;2023-04-16T01:49:44;44.97;;;27.40;;
62693;SDS011;48759;52.544;13.418;2023-04-16T01:52:12;39.00;;;27.20;;
62693;SDS011;48759;52.544;13.418;2023-04-16T01:54:40;34.10;;;24.87;;
62693;SDS011;48759;52.544;13.418;2023-04-16T01:57:08;37.23;;;25.80;;
62693;SDS011;48759;52.544;13.418;2023-04-16T01:59:35;36.90;;;25.87;;
62693;SDS011;48759;52.544;13.418;2023-04-16T02:02:02;37.63;;;26.43;;
62693;SDS011;48759;52.544;13.418;2023-04-16T02:04:35;37.60;;;26.53;;
62693;SDS011;48759;52.544;13.418;2023-04-16T02:07:02;35.40;;;26.37;;
62693;SDS011;48759;52.544;13.418;2023-04-16T02:09:30;35.07;;;25.47;;
62693;SDS011;48759;52.544;13.418;2023-04-16T02:12:01;33.93;;;25.40;;
62693;SDS011;48759;52.544;13.418;2023-04-16T02:14:30;32.70;;;24.67;;
62693;SDS011;48759;52.544;13.418;2023-04-16T02:16:59;34.23;;;24.63;;
62693;SDS011;48759;52.544;13.418;2023-04-16T02:19:26;38.57;;;26.03;;
62693;SDS011;48759;52.544;13.418;2023-04-16T02:21:52;35.20;;;25.60;;
62693;SDS011;48759;52.544;13.418;2023-04-16T02:24:20;34.03;;;26.10;;
62693;SDS011;48759;52.544;13.418;2023-04-16T02:26:47;34.70;;;26.13;;
62693;SDS011;48759;52.544;13.418;2023-04-16T02:29:13;42.27;;;25.47;;
62693;SDS011;48759;52.544;13.418;2023-04-16T02:31:42;33.37;;;25.60;;
62693;SDS011;48759;52.544;13.418;2023-04-16T02:34:08;37.20;;;24.67;;
62693;SDS011;48759;52.544;13.418;2023-04-16T02:36:35;36.43;;;26.20;;
62693;SDS011;48759;52.544;13.418;2023-04-16T02:39:02;38.37;;;26.03;;
62693;SDS011;48759;52.544;13.418;2023-04-16T02:41:29;38.17;;;27.90;;
62693;SDS011;48759;52.544;13.418;2023-04-16T02:43:56;38.40;;;28.13;;
62693;SDS011;48759;52.544;13.418;2023-04-16T02:46:23;41.33;;;28.10;;
62693;SDS011;48759;52.544;13.418;2023-04-16T02:48:51;39.47;;;27.53;;
62693;SDS011;48759;52.544;13.418;2023-04-16T02:51:17;42.20;;;27.50;;
62693;SDS011;48759;52.544;13.418;2023-04-16T02:53:44;42.93;;;28.97;;
62693;SDS011;48759;52.544;13.418;2023-04-16T02:56:12;46.00;;;30.23;;
62693;SDS011;48759;52.544;13.418;2023-04-16T02:58:39;47.40;;;30.60;;
62693;SDS011;48759;52.544;13.418;2023-04-16T03:01:06;45.33;;;28.90;;
62693;SDS011;48759;52.544;13.418;2023-04-16T03:03:33;45.60;;;30.20;;
62693;SDS011;48759;52.544;13.418;2023-04-16T03:06:01;51.27;;;30.30;;
62693;SDS011;48759;52.544;13.418;2023-04-16T03:08:28;48.70;;;31.37;;
62693;SDS011;48759;52.544;13.418;2023-04-16T03:10:55;40.53;;;28.60;;
62693;SDS011;48759;52.544;13.418;2023-04-16T03:13:21;43.20;;;28.77;;
62693;SDS011;48759;52.544;13.418;2023-04-16T03:15:48;44.80;;;29.20;;
62693;SDS011;48759;52.544;13.418;2023-04-16T03:18:15;46.57;;;29.50;;
62693;SDS011;48759;52.544;13.418;2023-04-16T03:20:42;49.10;;;29.00;;
62693;SDS011;48759;52.544;13.418;2023-04-16T03:23:10;41.77;;;29.77;;
62693;SDS011;48759;52.544;13.418;2023-04-16T03:25:37;46.63;;;30.70;;
62693;SDS011;48759;52.544;13.418;2023-04-16T03:28:04;43.17;;;29.33;;
62693;SDS011;48759;52.544;13.418;2023-04-16T03:30:31;44.20;;;27.80;;
62693;SDS011;48759;52.544;13.418;2023-04-16T03:32:58;47.03;;;29.87;;
62693;SDS011;48759;52.544;13.418;2023-04-16T03:35:25;39.40;;;26.70;;
62693;SDS011;48759;52.544;13.418;2023-04-16T03:37:52;40.67;;;26.83;;
62693;SDS011;48759;52.544;13.418;2023-04-16T03:40:20;36.37;;;25.83;;
62693;SDS011;48759;52.544;13.418;2023-04-16T03:42:49;38.77;;;25.10;;
62693;SDS011;48759;52.544;13.418;2023-04-16T03:45:16;44.17;;;27.37;;
62693;SDS011;48759;52.544;13.418;2023-04-16T03:47:42;35.20;;;25.37;;
62693;SDS011;48759;52.544;13.418;2023-04-16T03:50:12;40.00;;;26.13;;
62693;SDS011;48759;52.544;13.418;2023-04-16T03:52:39;39.20;;;25.60;;
62693;SDS011;48759;52.544;13.418;2023-04-16T03:55:06;38.23;;;25.40;;
62693;SDS011;48759;52.544;13.418;2023-04-16T03:57:35;39.67;;;25.80;;
62693;SDS011;48759;52.544;13.418;2023-04-16T04:00:01;39.37;;;25.10;;
62693;SDS011;48759;52.544;13.418;2023-04-16T04:02:29;41.70;;;25.60;;
62693;SDS011;48759;52.544;13.418;2023-04-16T04:04:55;37.73;;;25.40;;
62693;SDS011;48759;52.544;13.418;2023-04-16T04:07:22;42.67;;;26.10;;
62693;SDS011;48759;52.544;13.418;2023-04-16T04:09:49;48.43;;;27.00;;
62693;SDS011;48759;52.544;13.418;2023-04-16T04:12:16;38.10;;;26.17;;
62693;SDS011;48759;52.544;13.418;2023-04-16T04:14:44;41.93;;;25.60;;
62693;SDS011;48759;52.544;13.418;2023-04-16T04:17:11;36.17;;;25.47;;
62693;SDS011;48759;52.544;13.418;2023-04-16T04:19:37;43.73;;;27.10;;
62693;SDS011;48759;52.544;13.418;2023-04-16T04:22:04;37.60;;;25.23;;
62693;SDS011;48759;52.544;13.418;2023-04-16T04:24:31;48.03;;;27.47;;
62693;SDS011;48759;52.544;13.418;2023-04-16T04:26:58;43.00;;;27.13;;
62693;SDS011;48759;52.544;13.418;2023-04-16T04:29:25;42.03;;;26.80;;
62693;SDS011;48759;52.544;13.418;2023-04-16T04:31:53;43.10;;;26.77;;
62693;SDS011;48759;52.544;13.418;2023-04-16T04:34:20;37.47;;;26.63;;
62693;SDS011;48759;52.544;13.418;2023-04-16T04:36:47;41.27;;;27.00;;
62693;SDS011;48759;52.544;13.418;2023-04-16T04:39:14;44.33;;;26.60;;
62693;SDS011;48759;52.544;13.418;2023-04-16T04:41:42;44.93;;;26.30;;
62693;SDS011;48759;52.544;13.418;2023-04-16T04:44:08;42.33;;;27.40;;
62693;SDS011;48759;52.544;13.418;2023-04-16T04:46:35;42.20;;;28.30;;
62693;SDS011;48759;52.544;13.418;2023-04-16T04:49:03;44.73;;;28.00;;
62693;SDS011;48759;52.544;13.418;2023-04-16T04:51:30;46.33;;;27.90;;
62693;SDS011;48759;52.544;13.418;2023-04-16T04:53:58;44.70;;;28.97;;
62693;SDS011;48759;52.544;13.418;2023-04-16T04:56:25;49.00;;;28.20;;
62693;SDS011;48759;52.544;13.418;2023-04-16T04:58:53;42.83;;;28.83;;
62693;SDS011;48759;52.544;13.418;2023-04-16T05:01:20;50.00;;;29.80;;
62693;SDS011;48759;52.544;13.418;2023-04-16T05:03:46;68.40;;;30.73;;
62693;SDS011;48759;52.544;13.418;2023-04-16T05:06:15;49.37;;;30.30;;
62693;SDS011;48759;52.544;13.418;2023-04-16T05:08:41;55.00;;;31.20;;
62693;SDS011;48759;52.544;13.418;2023-04-16T05:11:08;46.40;;;30.10;;
62693;SDS011;48759;52.544;13.418;2023-04-16T05:13:35;51.63;;;30.70;;
62693;SDS011;48759;52.544;13.418;2023-04-16T05:16:01;51.03;;;30.87;;
62693;SDS011;48759;52.544;13.418;2023-04-16T05:18:28;45.27;;;29.43;;
62693;SDS011;48759;52.544;13.418;2023-04-16T05:20:56;47.00;;;28.50;;
62693;SDS011;48759;52.544;13.418;2023-04-16T05:23:24;47.13;;;28.77;;
62693;SDS011;48759;52.544;13.418;2023-04-16T05:25:51;41.87;;;27.20;;
62693;SDS011;48759;52.544;13.418;2023-04-16T05:28:18;47.87;;;28.47;;
62693;SDS011;48759;52.544;13.418;2023-04-16T05:30:45;40.77;;;27.03;;
62693;SDS011;48759;52.544;13.418;2023-04-16T05:33:12;50.93;;;29.30;;
62693;SDS011;48759;52.544;13.418;2023-04-16T05:35:38;44.20;;;27.50;;
62693;SDS011;48759;52.544;13.418;2023-04-16T05:38:05;42.20;;;28.00;;
62693;SDS011;48759;52.544;13.418;2023-04-16T05:40:33;45.23;;;27.70;;
62693;SDS011;48759;52.544;13.418;2023-04-16T05:43:00;45.00;;;27.03;;
62693;SDS011;48759;52.544;13.418;2023-04-16T05:45:27;45.20;;;24.90;;
62693;SDS011;48759;52.544;13.418;2023-04-16T05:47:53;44.53;;;27.70;;
62693;SDS011;48759;52.544;13.418;2023-04-16T05:50:20;41.73;;;26.60;;
62693;SDS011;48759;52.544;13.418;2023-04-16T05:52:47;44.13;;;27.00;;
62693;SDS011;48759;52.544;13.418;2023-04-16T05:55:14;40.27;;;26.40;;
62693;SDS011;48759;52.544;13.418;2023-04-16T05:57:42;37.73;;;23.93;;
62693;SDS011;48759;52.544;13.418;2023-04-16T06:00:09;41.50;;;25.90;;
62693;SDS011;48759;52.544;13.418;2023-04-16T06:02:37;38.80;;;25.53;;
62693;SDS011;48759;52.544;13.418;2023-04-16T06:05:04;38.80;;;25.40;;
62693;SDS011;48759;52.544;13.418;2023-04-16T06:07:31;39.33;;;23.53;;
62693;SDS011;48759;52.544;13.418;2023-04-16T06:09:58;37.57;;;23.97;;
62693;SDS011;48759;52.544;13.418;2023-04-16T06:12:24;42.30;;;23.80;;
62693;SDS011;48759;52.544;13.418;2023-04-16T06:14:53;47.90;;;24.17;;
62693;SDS011;48759;52.544;13.418;2023-04-16T06:17:20;36.70;;;23.90;;
62693;SDS011;48759;52.544;13.418;2023-04-16T06:19:47;40.43;;;24.50;;
62693;SDS011;48759;52.544;13.418;2023-04-16T06:22:13;37.57;;;23.47;;
62693;SDS011;48759;52.544;13.418;2023-04-16T06:24:41;36.13;;;23.17;;
62693;SDS011;48759;52.544;13.418;2023-04-16T06:27:08;36.50;;;22.67;;
62693;SDS011;48759;52.544;13.418;2023-04-16T06:29:34;33.57;;;22.00;;
62693;SDS011;48759;52.544;13.418;2023-04-16T06:32:03;34.20;;;22.57;;
62693;SDS011;48759;52.544;13.418;2023-04-16T06:34:30;31.37;;;21.73;;
62693;SDS011;48759;52.544;13.418;2023-04-16T06:36:57;34.50;;;22.57;;
62693;SDS011;48759;52.544;13.418;2023-04-16T06:39:23;32.03;;;22.40;;
62693;SDS011;48759;52.544;13.418;2023-04-16T06:41:50;36.83;;;22.07;;
62693;SDS011;48759;52.544;13.418;2023-04-16T06:44:17;35.40;;;22.53;;
62693;SDS011;48759;52.544;13.418;2023-04-16T06:46:44;35.10;;;23.70;;
62693;SDS011;48759;52.544;13.418;2023-04-16T06:49:12;32.27;;;22.73;;
62693;SDS011;48759;52.544;13.418;2023-04-16T06:51:39;31.47;;;21.03;;
62693;SDS011;48759;52.544;13.418;2023-04-16T06:54:07;35.00;;;21.60;;
62693;SDS011;48759;52.544;13.418;2023-04-16T06:56:34;36.47;;;22.40;;
62693;SDS011;48759;52.544;13.418;2023-04-16T06:59:01;35.87;;;23.07;;
62693;SDS011;48759;52.544;13.418;2023-04-16T07:01:28;35.70;;;21.90;;
62693;SDS011;48759;52.544;13.418;2023-04-16T07:03:55;33.80;;;22.47;;
62693;SDS011;48759;52.544;13.418;2023-04-16T07:06:23;27.23;;;20.30;;
62693;SDS011;48759;52.544;13.418;2023-04-16T07:08:51;37.77;;;22.50;;
62693;SDS011;48759;52.544;13.418;2023-04-16T07:11:17;32.17;;;22.33;;
62693;SDS011;48759;52.544;13.418;2023-04-16T07:13:45;39.30;;;23.30;;
62693;SDS011;48759;52.544;13.418;2023-04-16T07:16:14;40.00;;;23.73;;
62693;SDS011;48759;52.544;13.418;2023-04-16T07:18:41;41.07;;;23.27;;
62693;SDS011;48759;52.544;13.418;2023-04-16T07:21:07;35.23;;;22.40;;
62693;SDS011;48759;52.544;13.418;2023-04-16T07:23:36;36.47;;;24.43;;
62693;SDS011;48759;52.544;13.418;2023-04-16T07:26:03;37.40;;;23.83;;
62693;SDS011;48759;52.544;13.418;2023-04-16T07:28:31;33.77;;;22.50;;
62693;SDS011;48759;52.544;13.418;2023-04-16T07:30:57;35.93;;;22.97;;
62693;SDS011;48759;52.544;13.418;2023-04-16T07:33:24;36.83;;;24.20;;
62693;SDS011;48759;52.544;13.418;2023-04-16T07:35:51;34.43;;;22.73;;
62693;SDS011;48759;52.544;13.418;2023-04-16T07:38:18;34.33;;;22.30;;
62693;SDS011;48759;52.544;13.418;2023-04-16T07:40:46;34.03;;;21.90;;
62693;SDS011;48759;52.544;13.418;2023-04-16T07:43:14;37.63;;;23.10;;
62693;SDS011;48759;52.544;13.418;2023-04-16T07:45:41;37.60;;;23.80;;
62693;SDS011;48759;52.544;13.418;2023-04-16T07:48:08;38.53;;;23.57;;
62693;SDS011;48759;52.544;13.418;2023-04-16T07:50:35;34.47;;;23.07;;
62693;SDS011;48759;52.544;13.418;2023-04-16T07:53:02;37.37;;;22.00;;
62693;SDS011;48759;52.544;13.418;2023-04-16T07:55:30;37.23;;;22.27;;
62693;SDS011;48759;52.544;13.418;2023-04-16T07:57:58;38.90;;;23.60;;
62693;SDS011;48759;52.544;13.418;2023-04-16T08:00:26;36.03;;;24.80;;
62693;SDS011;48759;52.544;13.418;2023-04-16T08:02:54;43.33;;;25.73;;
62693;SDS011;48759;52.544;13.418;2023-04-16T08:05:21;36.10;;;24.23;;
62693;SDS011;48759;52.544;13.418;2023-04-16T08:07:48;42.73;;;25.00;;
62693;SDS011;48759;52.544;13.418;2023-04-16T08:10:15;37.20;;;24.30;;
62693;SDS011;48759;52.544;13.418;2023-04-16T08:12:41;38.80;;;24.67;;
62693;SDS011;48759;52.544;13.418;2023-04-16T08:15:12;32.70;;;22.50;;
62693;SDS011;48759;52.544;13.418;2023-04-16T08:17:39;36.10;;;22.67;;
62693;SDS011;48759;52.544;13.418;2023-04-16T08:20:06;37.40;;;22.43;;
62693;SDS011;48759;52.544;13.418;2023-04-16T08:22:33;35.27;;;21.17;;
62693;SDS011;48759;52.544;13.418;2023-04-16T08:25:01;33.53;;;21.30;;
62693;SDS011;48759;52.544;13.418;2023-04-16T08:27:29;36.43;;;21.47;;
62693;SDS011;48759;52.544;13.418;2023-04-16T08:29:56;38.40;;;22.37;;
62693;SDS011;48759;52.544;13.418;2023-04-16T08:32:24;34.87;;;22.27;;
62693;SDS011;48759;52.544;13.418;2023-04-16T08:34:51;35.87;;;23.67;;
62693;SDS011;48759;52.544;13.418;2023-04-16T08:37:18;43.67;;;23.10;;
62693;SDS011;48759;52.544;13.418;2023-04-16T08:39:45;38.10;;;20.70;;
62693;SDS011;48759;52.544;13.418;2023-04-16T08:42:12;37.60;;;23.00;;
62693;SDS011;48759;52.544;13.418;2023-04-16T08:44:47;38.17;;;22.03;;
62693;SDS011;48759;52.544;13.418;2023-04-16T08:47:14;36.83;;;23.03;;
62693;SDS011;48759;52.544;13.418;2023-04-16T08:49:46;41.50;;;23.93;;
62693;SDS011;48759;52.544;13.418;2023-04-16T08:52:15;41.60;;;24.90;;
62693;SDS011;48759;52.544;13.418;2023-04-16T08:54:51;32.47;;;22.10;;
62693;SDS011;48759;52.544;13.418;2023-04-16T08:57:29;34.47;;;21.80;;
62693;SDS011;48759;52.544;13.418;2023-04-16T09:00:27;42.93;;;24.30;;
62693;SDS011;48759;52.544;13.418;2023-04-16T09:03:02;32.30;;;23.10;;
62693;SDS011;48759;52.544;13.418;2023-04-16T09:05:33;30.87;;;20.63;;
62693;SDS011;48759;52.544;13.418;2023-04-16T09:08:18;31.50;;;21.23;;
62693;SDS011;48759;52.544;13.418;2023-04-16T09:10:45;30.33;;;21.37;;
62693;SDS011;48759;52.544;13.418;2023-04-16T09:13:16;32.17;;;20.47;;
62693;SDS011;48759;52.544;13.418;2023-04-16T09:15:44;34.77;;;22.17;;
62693;SDS011;48759;52.544;13.418;2023-04-16T09:18:24;31.47;;;19.60;;
62693;SDS011;48759;52.544;13.418;2023-04-16T09:20:56;25.70;;;18.97;;
62693;SDS011;48759;52.544;13.418;2023-04-16T09:23:24;30.37;;;19.40;;
62693;SDS011;48759;52.544;13.418;2023-04-16T09:25:54;29.10;;;18.07;;
62693;SDS011;48759;52.544;13.418;2023-04-16T09:28:41;25.67;;;18.60;;
62693;SDS011;48759;52.544;13.418;2023-04-16T09:31:12;26.90;;;18.47;;
62693;SDS011;48759;52.544;13.418;2023-04-16T09:34:14;26.53;;;18.63;;
62693;SDS011;48759;52.544;13.418;2023-04-16T09:36:57;28.53;;;18.53;;
62693;SDS011;48759;52.544;13.418;2023-04-16T09:39:41;26.90;;;18.70;;
62693;SDS011;48759;52.544;13.418;2023-04-16T09:42:09;28.73;;;19.53;;
62693;SDS011;48759;52.544;13.418;2023-04-16T09:44:58;29.03;;;19.90;;
62693;SDS011;48759;52.544;13.418;2023-04-16T09:47:48;32.20;;;21.80;;
62693;SDS011;48759;52.544;13.418;2023-04-16T09:50:33;28.13;;;18.93;;
62693;SDS011;48759;52.544;13.418;2023-04-16T09:53:10;28.83;;;20.40;;
62693;SDS011;48759;52.544;13.418;2023-04-16T09:55:41;26.47;;;18.60;;
62693;SDS011;48759;52.544;13.418;2023-04-16T09:58:20;39.43;;;25.90;;
62693;SDS011;48759;52.544;13.418;2023-04-16T10:00:54;39.63;;;25.30;;
62693;SDS011;48759;52.544;13.418;2023-04-16T10:03:27;26.57;;;19.30;;
62693;SDS011;48759;52.544;13.418;2023-04-16T10:05:59;30.80;;;19.80;;
62693;SDS011;48759;52.544;13.418;2023-04-16T10:08:37;26.03;;;19.03;;
62693;SDS011;48759;52.544;13.418;2023-04-16T10:11:12;29.97;;;19.43;;
62693;SDS011;48759;52.544;13.418;2023-04-16T10:13:44;28.00;;;19.70;;
62693;SDS011;48759;52.544;13.418;2023-04-16T10:16:34;29.90;;;21.80;;
62693;SDS011;48759;52.544;13.418;2023-04-16T10:19:14;30.90;;;22.00;;
62693;SDS011;48759;52.544;13.418;2023-04-16T10:21:43;31.73;;;22.50;;
62693;SDS011;48759;52.544;13.418;2023-04-16T10:24:28;32.70;;;22.50;;
62693;SDS011;48759;52.544;13.418;2023-04-16T10:27:02;36.37;;;22.33;;
62693;SDS011;48759;52.544;13.418;2023-04-16T10:29:35;38.80;;;25.10;;
62693;SDS011;48759;52.544;13.418;2023-04-16T10:32:19;29.80;;;21.93;;
62693;SDS011;48759;52.544;13.418;2023-04-16T10:35:13;31.73;;;22.80;;
62693;SDS011;48759;52.544;13.418;2023-04-16T10:44:44;31.13;;;21.90;;
62693;SDS011;48759;52.544;13.418;2023-04-16T10:47:13;29.80;;;22.03;;
62693;SDS011;48759;52.544;13.418;2023-04-16T10:49:46;28.27;;;21.40;;
62693;SDS011;48759;52.544;13.418;2023-04-16T10:52:22;28.70;;;21.70;;
62693;SDS011;48759;52.544;13.418;2023-04-16T10:54:50;33.37;;;24.00;;
62693;SDS011;48759;52.544;13.418;2023-04-16T10:57:29;31.30;;;24.13;;
62693;SDS011;48759;52.544;13.418;2023-04-16T11:02:54;27.77;;;20.80;;
62693;SDS011;48759;52.544;13.418;2023-04-16T11:05:27;26.00;;;20.40;;
62693;SDS011;48759;52.544;13.418;2023-04-16T11:08:14;27.00;;;20.13;;
62693;SDS011;48759;52.544;13.418;2023-04-16T11:10:46;23.77;;;20.00;;
62693;SDS011;48759;52.544;13.418;2023-04-16T11:13:24;22.83;;;19.80;;
62693;SDS011;48759;52.544;13.418;2023-04-16T11:16:03;23.07;;;18.77;;
62693;SDS011;48759;52.544;13.418;2023-04-16T11:18:52;26.37;;;21.60;;
62693;SDS011;48759;52.544;13.418;2023-04-16T11:21:23;24.80;;;21.17;;
62693;SDS011;48759;52.544;13.418;2023-04-16T11:24:00;25.90;;;19.90;;
62693;SDS011;48759;52.544;13.418;2023-04-16T11:26:41;23.00;;;20.30;;
62693;SDS011;48759;52.544;13.418;2023-04-16T11:29:16;26.93;;;21.93;;
62693;SDS011;48759;52.544;13.418;2023-04-16T11:31:54;24.30;;;19.57;;
62693;SDS011;48759;52.544;13.418;2023-04-16T11:34:25;25.40;;;20.10;;
62693;SDS011;48759;52.544;13.418;2023-04-16T11:37:02;24.00;;;19.40;;
62693;SDS011;48759;52.544;13.418;2023-04-16T11:39:50;24.00;;;19.60;;
62693;SDS011;48759;52.544;13.418;2023-04-16T11:42:22;23.03;;;18.77;;
62693;SDS011;48759;52.544;13.418;2023-04-16T11:44:52;25.73;;;19.03;;
62693;SDS011;48759;52.544;13.418;2023-04-16T11:47:26;28.43;;;20.87;;
62693;SDS011;48759;52.544;13.418;2023-04-16T11:52:41;25.17;;;17.97;;
62693;SDS011;48759;52.544;13.418;2023-04-16T11:55:18;19.40;;;16.70;;
62693;SDS011;48759;52.544;13.418;2023-04-16T11:57:48;19.60;;;16.60;;
62693;SDS011;48759;52.544;13.418;2023-04-16T12:00:24;19.67;;;15.70;;
62693;SDS011;48759;52.544;13.418;2023-04-16T12:03:16;22.93;;;18.10;;
62693;SDS011;48759;52.544;13.418;2023-04-16T12:06:08;21.80;;;17.73;;
62693;SDS011;48759;52.544;13.418;2023-04-16T12:08:41;21.83;;;16.77;;
62693;SDS011;48759;52.544;13.418;2023-04-16T12:11:17;21.87;;;16.20;;
62693;SDS011;48759;52.544;13.418;2023-04-16T12:14:09;20.53;;;15.43;;
62693;SDS011;48759;52.544;13.418;2023-04-16T12:16:47;22.03;;;15.40;;
62693;SDS011;48759;52.544;13.418;2023-04-16T12:19:30;20.83;;;15.40;;
62693;SDS011;48759;52.544;13.418;2023-04-16T12:22:04;18.50;;;15.17;;
62693;SDS011;48759;52.544;13.418;2023-04-16T12:24:42;17.10;;;14.33;;
62693;SDS011;48759;52.544;13.418;2023-04-16T12:27:21;17.30;;;13.93;;
62693;SDS011;48759;52.544;13.418;2023-04-16T12:30:02;16.90;;;14.97;;
62693;SDS011;48759;52.544;13.418;2023-04-16T12:33:44;18.13;;;14.97;;
62693;SDS011;48759;52.544;13.418;2023-04-16T12:42:57;18.07;;;14.20;;
62693;SDS011;48759;52.544;13.418;2023-04-16T12:45:57;18.37;;;14.20;;
62693;SDS011;48759;52.544;13.418;2023-04-16T12:48:42;16.20;;;14.07;;
62693;SDS011;48759;52.544;13.418;2023-04-16T12:51:30;16.73;;;14.87;;
62693;SDS011;48759;52.544;13.418;2023-04-16T12:54:26;18.47;;;13.20;;
62693;SDS011;48759;52.544;13.418;2023-04-16T12:57:09;16.90;;;13.80;;
62693;SDS011;48759;52.544;13.418;2023-04-16T13:00:15;14.27;;;12.53;;
62693;SDS011;48759;52.544;13.418;2023-04-16T13:02:51;17.03;;;14.13;;
62693;SDS011;48759;52.544;13.418;2023-04-16T13:05:38;17.83;;;14.30;;
62693;SDS011;48759;52.544;13.418;2023-04-16T13:08:13;20.10;;;13.40;;
62693;SDS011;48759;52.544;13.418;2023-04-16T13:10:47;19.30;;;13.10;;
62693;SDS011;48759;52.544;13.418;2023-04-16T13:13:22;14.47;;;12.03;;
62693;SDS011;48759;52.544;13.418;2023-04-16T13:16:13;13.80;;;11.70;;
62693;SDS011;48759;52.544;13.418;2023-04-16T13:18:47;13.83;;;12.23;;
62693;SDS011;48759;52.544;13.418;2023-04-16T13:21:20;15.67;;;12.23;;
62693;SDS011;48759;52.544;13.418;2023-04-16T13:23:49;17.27;;;11.63;;
62693;SDS011;48759;52.544;13.418;2023-04-16T13:26:22;20.87;;;12.30;;
62693;SDS011;48759;52.544;13.418;2023-04-16T13:29:11;13.60;;;10.13;;
62693;SDS011;48759;52.544;13.418;2023-04-16T13:31:39;13.90;;;11.50;;
62693;SDS011;48759;52.544;13.418;2023-04-16T13:34:09;15.27;;;11.67;;
62693;SDS011;48759;52.544;13.418;2023-04-16T13:36:41;12.33;;;11.03;;
62693;SDS011;48759;52.544;13.418;2023-04-16T13:39:23;13.10;;;11.73;;
62693;SDS011;48759;52.544;13.418;2023-04-16T13:42:01;17.20;;;11.90;;
62693;SDS011;48759;52.544;13.418;2023-04-16T13:44:30;16.83;;;13.27;;
62693;SDS011;48759;52.544;13.418;2023-04-16T13:47:02;14.83;;;11.40;;
62693;SDS011;48759;52.544;13.418;2023-04-16T13:49:30;16.83;;;12.10;;
62693;SDS011;48759;52.544;13.418;2023-04-16T13:52:08;15.50;;;11.87;;
62693;SDS011;48759;52.544;13.418;2023-04-16T13:54:35;13.67;;;10.50;;
62693;SDS011;48759;52.544;13.418;2023-04-16T13:57:16;12.70;;;11.03;;
62693;SDS011;48759;52.544;13.418;2023-04-16T13:59:46;13.07;;;10.83;;
62693;SDS011;48759;52.544;13.418;2023-04-16T14:02:24;13.10;;;10.90;;
62693;SDS011;48759;52.544;13.418;2023-04-16T14:05:16;12.83;;;10.17;;
62693;SDS011;48759;52.544;13.418;2023-04-16T14:07:51;11.90;;;9.70;;
62693;SDS011;48759;52.544;13.418;2023-04-16T14:10:26;13.20;;;10.30;;
62693;SDS011;48759;52.544;13.418;2023-04-16T14:13:05;13.47;;;10.20;;
62693;SDS011;48759;52.544;13.418;2023-04-16T14:15:47;11.40;;;9.57;;
62693;SDS011;48759;52.544;13.418;2023-04-16T14:18:18;10.30;;;9.10;;
62693;SDS011;48759;52.544;13.418;2023-04-16T14:20:47;10.53;;;8.90;;
62693;SDS011;48759;52.544;13.418;2023-04-16T14:23:15;10.30;;;8.77;;
62693;SDS011;48759;52.544;13.418;2023-04-16T14:25:43;14.37;;;9.90;;
62693;SDS011;48759;52.544;13.418;2023-04-16T14:28:15;11.37;;;9.40;;
62693;SDS011;48759;52.544;13.418;2023-04-16T14:30:42;11.43;;;10.23;;
62693;SDS011;48759;52.544;13.418;2023-04-16T14:33:15;11.03;;;9.93;;
62693;SDS011;48759;52.544;13.418;2023-04-16T14:35:46;12.13;;;10.13;;
62693;SDS011;48759;52.544;13.418;2023-04-16T14:38:17;10.70;;;9.60;;
62693;SDS011;48759;52.544;13.418;2023-04-16T14:40:44;15.50;;;10.47;;
62693;SDS011;48759;52.544;13.418;2023-04-16T14:43:12;13.17;;;9.50;;
62693;SDS011;48759;52.544;13.418;2023-04-16T14:45:44;10.60;;;8.90;;
62693;SDS011;48759;52.544;13.418;2023-04-16T14:48:11;11.30;;;9.37;;
62693;SDS011;48759;52.544;13.418;2023-04-16T14:50:41;12.87;;;9.90;;